OIAM  Mahshahr  Airport

Iran

Add Bookmark
Status IATA
Operational MRX
Latitude Longitude
30° 33' 22" N 49° 9' 6" E
30.556200 49.151901
Local (DST + 5) UTC (GMT + 4)
Mar 29, 2015 02:42 Mar 28, 2015 22:12
Sunrise-Sunset Local UTC
Begin Civil Twilight 06:40 02:10
Sunrise 07:04 02:34
Sunset 07:31 15:01
End Civil Twilight 07:55 15:25

Current Weather

METAR Observed VFR
OIAM 282100Z 30002KT CAVOK 21/12 Q1015 Sat, Mar 28, 2015 @ 21:00 UTC
(1 Hour, 12 Minutes ago)
Visual Flight Rules
Wind Visibility Clouds Conditions
300° at 2 knots (4 kph) 10 km or more
  • Clear skies
  • No significant weather
Temperatures Readings Precipitation
Current Temp 21°C (70°F)
Dewpoint 12°C (54°F)
Humidity 57%
Altimeter 29.97"Hg
Sea Level Pressure 1015mb
Field Elevation 13.12'
None Recorded

Additional weather within a 92.6km radius of OIAM

Map ICAO Location
OIAG 54.4km E (067°)
OIAA 90.7km W (257°)

24 Hour Weather History

Loading
-

24 Hour Weather Graphs

Loading
-

CheckWX.com is intended as a tool to help pilots better visualize weather data. It is not intended as a substitute for an official weather briefing obtained from a Flight Service Station. CheckWX.com does not meet the FAA requirements for an official pre-flight weather briefing. Therefore, it's important that pilots still call and obtain an official FSS pre-flight weather briefing.